createdAt,value
2019-01-23T00:00:28.104Z,9.70
2019-01-23T00:02:55.208Z,9.80
2019-01-23T00:05:22.285Z,9.70
2019-01-23T00:07:49.374Z,9.70
2019-01-23T00:10:16.432Z,9.70
2019-01-23T00:12:43.521Z,9.70
2019-01-23T00:15:10.621Z,9.70
2019-01-23T00:17:37.714Z,9.70
2019-01-23T00:20:04.996Z,9.70
2019-01-23T00:22:32.067Z,9.70
2019-01-23T00:24:59.149Z,9.70
2019-01-23T00:27:26.258Z,9.70
2019-01-23T00:29:53.336Z,9.70
2019-01-23T00:32:20.460Z,9.70
2019-01-23T00:34:47.518Z,9.70
2019-01-23T00:37:14.601Z,9.70
2019-01-23T00:39:41.684Z,9.70
2019-01-23T00:42:08.746Z,9.70
2019-01-23T00:44:35.819Z,9.70
2019-01-23T00:47:02.949Z,9.70
2019-01-23T00:49:30.029Z,9.70
2019-01-23T00:51:57.129Z,9.70
2019-01-23T00:54:24.204Z,9.70
2019-01-23T00:56:51.280Z,9.70
2019-01-23T00:59:18.360Z,9.70
2019-01-23T01:01:45.434Z,9.70
2019-01-23T01:04:12.509Z,9.70
2019-01-23T01:06:39.594Z,9.70
2019-01-23T01:09:08.841Z,9.70
2019-01-23T01:11:35.915Z,9.70
2019-01-23T01:14:03.009Z,9.70
2019-01-23T01:16:30.096Z,9.70
2019-01-23T01:18:57.169Z,9.70
2019-01-23T01:21:24.254Z,9.70
2019-01-23T01:23:51.324Z,9.70
2019-01-23T01:26:18.426Z,9.70
2019-01-23T01:28:45.529Z,9.70
2019-01-23T01:31:12.600Z,9.70
2019-01-23T01:33:39.695Z,9.70
2019-01-23T01:36:06.781Z,9.70
2019-01-23T01:38:33.864Z,9.70
2019-01-23T01:41:00.949Z,9.70
2019-01-23T01:43:28.040Z,9.70
2019-01-23T01:45:55.119Z,9.70
2019-01-23T01:48:22.264Z,9.70
2019-01-23T01:50:49.320Z,9.70
2019-01-23T01:53:16.427Z,9.70
2019-01-23T01:55:43.499Z,9.70
2019-01-23T01:58:10.628Z,9.70
2019-01-23T02:00:37.712Z,9.70
2019-01-23T02:03:04.800Z,9.70
2019-01-23T02:05:31.860Z,9.70
2019-01-23T02:07:58.975Z,9.70
2019-01-23T02:10:26.049Z,9.60
2019-01-23T02:12:53.149Z,9.70
2019-01-23T02:15:20.220Z,9.70
2019-01-23T02:17:47.454Z,9.70
2019-01-23T02:20:17.381Z,9.70
2019-01-23T02:22:44.471Z,9.70
2019-01-23T02:25:11.556Z,9.60
2019-01-23T02:27:38.632Z,9.70
2019-01-23T02:30:07.186Z,9.70
2019-01-23T02:32:34.268Z,9.70
2019-01-23T02:35:01.360Z,9.70
2019-01-23T02:37:28.431Z,9.60
2019-01-23T02:39:55.498Z,9.70
2019-01-23T02:42:22.576Z,9.70
2019-01-23T02:44:49.677Z,9.70
2019-01-23T02:47:16.793Z,9.70
2019-01-23T02:49:43.905Z,9.60
2019-01-23T02:52:10.977Z,9.60
2019-01-23T02:54:38.056Z,9.60
2019-01-23T02:57:05.154Z,9.60
2019-01-23T02:59:32.232Z,9.60
2019-01-23T03:01:59.324Z,9.60
2019-01-23T03:04:26.417Z,9.60
2019-01-23T03:06:53.489Z,9.60
2019-01-23T03:09:20.586Z,9.60
2019-01-23T03:11:47.717Z,9.60
2019-01-23T03:14:14.799Z,9.60
2019-01-23T03:16:41.890Z,9.60
2019-01-23T03:19:08.983Z,9.60
2019-01-23T03:21:36.074Z,9.70
2019-01-23T03:24:03.192Z,9.60
2019-01-23T03:26:30.288Z,9.60
2019-01-23T03:28:57.379Z,9.60
2019-01-23T03:31:24.489Z,9.60
2019-01-23T03:33:51.638Z,9.60
2019-01-23T03:36:18.716Z,9.60
2019-01-23T03:38:45.813Z,9.60
2019-01-23T03:41:12.913Z,9.60
2019-01-23T03:43:40.021Z,9.60
2019-01-23T03:46:07.096Z,9.60
2019-01-23T03:48:34.178Z,9.60
2019-01-23T03:51:01.268Z,9.60
2019-01-23T03:53:28.333Z,9.60
2019-01-23T03:55:55.463Z,9.60
2019-01-23T03:58:22.557Z,9.60
2019-01-23T04:00:49.660Z,9.60
2019-01-23T04:03:16.755Z,9.60
2019-01-23T04:05:43.869Z,9.60
2019-01-23T04:08:10.989Z,9.60
2019-01-23T04:10:38.096Z,9.60
2019-01-23T04:13:05.172Z,9.60
2019-01-23T04:15:32.266Z,9.60
2019-01-23T04:17:59.357Z,9.60
2019-01-23T04:20:26.445Z,9.60
2019-01-23T04:22:53.521Z,9.60
2019-01-23T04:25:20.593Z,9.60
2019-01-23T04:27:47.679Z,9.60
2019-01-23T04:30:19.611Z,9.60
2019-01-23T04:32:46.700Z,9.60
2019-01-23T04:35:13.783Z,9.60
2019-01-23T04:37:40.884Z,9.60
2019-01-23T04:40:08.337Z,9.60
2019-01-23T04:42:35.432Z,9.50
2019-01-23T04:45:02.786Z,9.50
2019-01-23T04:47:29.884Z,9.60
2019-01-23T04:49:56.988Z,9.50
2019-01-23T04:52:29.749Z,9.50
2019-01-23T04:54:56.848Z,9.60
2019-01-23T04:57:23.920Z,9.60
2019-01-23T04:59:51.004Z,9.60
2019-01-23T05:02:18.069Z,9.50
2019-01-23T05:04:45.168Z,9.50
2019-01-23T05:07:12.247Z,9.50
2019-01-23T05:09:39.332Z,9.50
2019-01-23T05:12:06.410Z,9.50
2019-01-23T05:14:33.512Z,9.60
2019-01-23T05:17:00.580Z,9.60
2019-01-23T05:19:27.660Z,9.60
2019-01-23T05:21:54.738Z,9.50
2019-01-23T05:24:21.811Z,9.50
2019-01-23T05:26:48.928Z,9.50
2019-01-23T05:29:16.011Z,9.50
2019-01-23T05:31:43.104Z,9.50
2019-01-23T05:34:10.170Z,9.50
2019-01-23T05:36:37.261Z,9.50
2019-01-23T05:39:06.885Z,9.50
2019-01-23T05:41:33.984Z,9.50
2019-01-23T05:44:01.092Z,9.50
2019-01-23T05:46:28.176Z,9.50
2019-01-23T05:48:55.236Z,9.50
2019-01-23T05:51:22.313Z,9.50
2019-01-23T05:53:49.385Z,9.50
2019-01-23T05:56:16.468Z,9.50
2019-01-23T05:58:43.545Z,9.50
2019-01-23T06:01:10.612Z,9.50
2019-01-23T06:03:37.704Z,9.50
2019-01-23T06:06:04.794Z,9.50
2019-01-23T06:08:31.861Z,9.50
2019-01-23T06:10:58.978Z,9.50
2019-01-23T06:13:26.060Z,9.50
2019-01-23T06:15:53.133Z,9.50
2019-01-23T06:18:20.232Z,9.50
2019-01-23T06:20:47.320Z,9.50
2019-01-23T06:23:14.393Z,9.50
2019-01-23T06:25:41.481Z,9.50
2019-01-23T06:28:08.576Z,9.50
2019-01-23T06:30:35.649Z,9.50
2019-01-23T06:33:02.731Z,9.50
2019-01-23T06:35:29.808Z,9.50
2019-01-23T06:37:56.881Z,9.50
2019-01-23T06:40:23.968Z,9.50
2019-01-23T06:42:51.066Z,9.50
2019-01-23T06:45:18.203Z,9.50
2019-01-23T06:47:45.889Z,9.40
2019-01-23T06:50:15.041Z,9.50
2019-01-23T06:52:42.190Z,9.40
2019-01-23T06:55:09.273Z,9.50
2019-01-23T06:57:36.371Z,9.40
2019-01-23T07:00:05.429Z,9.40
2019-01-23T07:02:32.513Z,9.40
2019-01-23T07:04:59.647Z,9.40
2019-01-23T07:07:26.738Z,9.50
2019-01-23T07:09:53.857Z,9.50
2019-01-23T07:12:20.926Z,9.50
2019-01-23T07:14:48.027Z,9.50
2019-01-23T07:17:15.132Z,9.40
2019-01-23T07:19:42.208Z,9.40
2019-01-23T07:22:09.312Z,9.40
2019-01-23T07:24:36.402Z,9.40
2019-01-23T07:27:03.597Z,9.40
2019-01-23T07:29:30.712Z,9.40
2019-01-23T07:31:57.810Z,9.40
2019-01-23T07:34:24.907Z,9.40
2019-01-23T07:36:52.022Z,9.40
2019-01-23T07:39:19.105Z,9.40
2019-01-23T07:41:46.241Z,9.40
2019-01-23T07:44:13.332Z,9.40
2019-01-23T07:46:40.412Z,9.40
2019-01-23T07:49:07.513Z,9.40
2019-01-23T07:51:34.616Z,9.40
2019-01-23T07:54:01.770Z,9.40
2019-01-23T07:56:28.851Z,9.40
2019-01-23T07:58:55.949Z,9.40
2019-01-23T08:01:23.080Z,9.40
2019-01-23T08:03:50.176Z,9.40
2019-01-23T08:06:17.241Z,9.40
2019-01-23T08:08:44.337Z,9.40
2019-01-23T08:11:11.405Z,9.40
2019-01-23T08:13:38.508Z,9.40
2019-01-23T08:16:05.585Z,9.40
2019-01-23T08:18:32.672Z,9.40
2019-01-23T08:20:59.741Z,9.40
2019-01-23T08:23:26.819Z,9.40
2019-01-23T08:25:53.912Z,9.40
2019-01-23T08:28:21.008Z,9.40
2019-01-23T08:30:48.085Z,9.40
2019-01-23T08:33:15.176Z,9.40
2019-01-23T08:35:42.276Z,9.40
2019-01-23T08:38:09.346Z,9.40
2019-01-23T08:40:36.434Z,9.40
2019-01-23T08:43:03.583Z,9.40
2019-01-23T08:45:30.697Z,9.40
2019-01-23T08:47:57.808Z,9.40
2019-01-23T08:50:28.781Z,9.40
2019-01-23T08:52:55.860Z,9.40
2019-01-23T08:55:23.078Z,9.40
2019-01-23T08:57:50.039Z,9.40
2019-01-23T09:00:17.153Z,9.40
2019-01-23T09:02:44.220Z,9.40
2019-01-23T09:05:11.364Z,9.40
2019-01-23T09:07:38.478Z,9.40
2019-01-23T09:10:08.222Z,9.40
2019-01-23T09:12:35.342Z,9.40
2019-01-23T09:15:02.433Z,9.40
2019-01-23T09:17:29.494Z,9.40
2019-01-23T09:19:56.590Z,9.40
2019-01-23T09:22:23.660Z,9.40
2019-01-23T09:24:50.732Z,9.40
2019-01-23T09:27:17.798Z,9.40
2019-01-23T09:29:44.886Z,9.40
2019-01-23T09:32:25.420Z,9.40
2019-01-23T09:35:22.806Z,9.40
2019-01-23T09:38:02.124Z,9.40
2019-01-23T09:41:09.564Z,9.30
2019-01-23T09:44:05.514Z,9.40
2019-01-23T09:46:45.934Z,9.30
2019-01-23T09:49:24.620Z,9.40
2019-01-23T09:52:05.000Z,9.40
2019-01-23T09:54:32.097Z,9.30
2019-01-23T09:56:59.173Z,9.40
2019-01-23T09:59:26.249Z,9.30
2019-01-23T10:01:53.354Z,9.30
2019-01-23T10:04:20.433Z,9.30
2019-01-23T10:06:47.519Z,9.30
2019-01-23T10:09:14.701Z,9.30
2019-01-23T10:11:41.796Z,9.30
2019-01-23T10:14:08.882Z,9.40
2019-01-23T10:16:35.974Z,9.40
2019-01-23T10:19:03.068Z,9.40
2019-01-23T10:21:30.211Z,9.40
2019-01-23T10:23:57.337Z,9.30
2019-01-23T10:26:24.450Z,9.30
2019-01-23T10:28:51.513Z,9.30
2019-01-23T10:31:18.624Z,9.30
2019-01-23T10:33:45.710Z,9.30
2019-01-23T10:36:12.789Z,9.30
2019-01-23T10:38:39.869Z,9.40
2019-01-23T10:41:06.948Z,9.30
2019-01-23T10:43:34.085Z,9.30
2019-01-23T10:46:01.180Z,9.30
2019-01-23T10:48:28.267Z,9.40
2019-01-23T10:50:55.341Z,9.30
2019-01-23T10:53:22.416Z,9.30
2019-01-23T10:55:49.530Z,9.30
2019-01-23T10:58:16.621Z,9.30
2019-01-23T11:00:43.701Z,9.30
2019-01-23T11:03:10.824Z,9.30
2019-01-23T11:05:37.890Z,9.30
2019-01-23T11:08:05.080Z,9.30
2019-01-23T11:10:32.252Z,9.30
2019-01-23T11:12:59.345Z,9.30
2019-01-23T11:15:26.452Z,9.30
2019-01-23T11:17:53.508Z,9.30
2019-01-23T11:20:20.605Z,9.30
2019-01-23T11:22:47.704Z,9.30
2019-01-23T11:25:14.795Z,9.30
2019-01-23T11:27:41.898Z,9.30
2019-01-23T11:30:12.231Z,9.30
2019-01-23T11:32:39.375Z,9.30
2019-01-23T11:35:06.754Z,9.30
2019-01-23T11:37:33.838Z,9.30
2019-01-23T11:40:00.946Z,9.30
2019-01-23T11:42:28.049Z,9.30
2019-01-23T11:44:55.148Z,9.20
2019-01-23T11:47:22.253Z,9.20
2019-01-23T11:49:49.321Z,9.30
2019-01-23T11:52:16.384Z,9.20
2019-01-23T11:54:43.453Z,9.20
2019-01-23T11:57:10.557Z,9.30
2019-01-23T11:59:37.661Z,9.20
2019-01-23T12:02:04.764Z,9.20
2019-01-23T12:04:31.845Z,9.20
2019-01-23T12:06:58.943Z,9.20
2019-01-23T12:09:26.016Z,9.30
2019-01-23T12:11:53.100Z,9.20
2019-01-23T12:14:20.169Z,9.20
2019-01-23T12:16:47.254Z,9.20
2019-01-23T12:19:14.356Z,9.20
2019-01-23T12:21:41.469Z,9.20
2019-01-23T12:24:08.541Z,9.20
2019-01-23T12:26:35.632Z,9.20
2019-01-23T12:29:02.766Z,9.20
2019-01-23T12:31:34.820Z,9.20
2019-01-23T12:33:56.993Z,9.30
2019-01-23T12:36:24.065Z,9.20
2019-01-23T12:38:51.165Z,9.20
2019-01-23T12:41:18.256Z,9.30
2019-01-23T12:43:45.310Z,9.30
2019-01-23T12:46:12.434Z,9.30
2019-01-23T12:48:39.509Z,9.30
2019-01-23T12:51:06.676Z,9.20
2019-01-23T12:53:33.729Z,9.30
2019-01-23T12:56:00.801Z,9.20
2019-01-23T12:58:27.876Z,9.20
2019-01-23T13:00:54.955Z,9.20
2019-01-23T13:03:22.040Z,9.30
2019-01-23T13:05:49.100Z,9.30
2019-01-23T13:08:16.209Z,9.20
2019-01-23T13:10:43.285Z,9.30
2019-01-23T13:13:10.365Z,9.30
2019-01-23T13:15:37.436Z,9.30
2019-01-23T13:18:04.541Z,9.20
2019-01-23T13:20:31.650Z,9.20
2019-01-23T13:22:58.760Z,9.20
2019-01-23T13:25:27.352Z,9.20
2019-01-23T13:27:55.283Z,9.20
2019-01-23T13:30:23.593Z,9.20
2019-01-23T13:32:50.689Z,9.20
2019-01-23T13:35:21.081Z,9.20
2019-01-23T13:37:48.188Z,9.20
2019-01-23T13:40:18.200Z,9.20
2019-01-23T13:42:45.303Z,9.20
2019-01-23T13:45:12.374Z,9.20
2019-01-23T13:47:39.448Z,9.20
2019-01-23T13:50:06.953Z,9.20
2019-01-23T13:52:34.020Z,9.20
2019-01-23T13:55:01.135Z,9.20
2019-01-23T13:57:28.243Z,9.20
2019-01-23T13:59:55.330Z,9.20
2019-01-23T14:02:22.408Z,9.20
2019-01-23T14:04:49.458Z,9.20
2019-01-23T14:07:16.549Z,9.20
2019-01-23T14:09:43.657Z,9.20
2019-01-23T14:12:10.739Z,9.20
2019-01-23T14:14:37.843Z,9.20
2019-01-23T14:17:04.955Z,9.20
2019-01-23T14:19:32.043Z,9.20
2019-01-23T14:21:59.123Z,9.10
2019-01-23T14:24:26.233Z,9.20
2019-01-23T14:26:53.329Z,9.20
2019-01-23T14:29:20.437Z,9.10
2019-01-23T14:31:47.521Z,9.20
2019-01-23T14:34:14.613Z,9.10
2019-01-23T14:36:41.688Z,9.20
2019-01-23T14:39:08.773Z,9.10
2019-01-23T14:41:35.841Z,9.20
2019-01-23T14:44:02.992Z,9.10
2019-01-23T14:46:30.080Z,9.10
2019-01-23T14:48:57.191Z,9.10
2019-01-23T14:51:24.268Z,9.10
2019-01-23T14:53:51.372Z,9.10
2019-01-23T14:56:18.476Z,9.10
2019-01-23T14:58:45.555Z,9.10
2019-01-23T15:01:12.626Z,9.10
2019-01-23T15:03:39.711Z,9.10
2019-01-23T15:06:06.797Z,9.10
2019-01-23T15:08:33.888Z,9.10
2019-01-23T15:11:00.978Z,9.10
2019-01-23T15:13:28.069Z,9.10
2019-01-23T15:15:55.157Z,9.10
2019-01-23T15:18:22.231Z,9.10
2019-01-23T15:20:49.332Z,9.10
2019-01-23T15:23:16.399Z,9.10
2019-01-23T15:25:43.484Z,9.10
2019-01-23T15:28:10.601Z,9.10
2019-01-23T15:30:37.724Z,9.10
2019-01-23T15:33:04.839Z,9.10
2019-01-23T15:35:31.913Z,9.10
2019-01-23T15:37:59.043Z,9.10
2019-01-23T15:40:28.254Z,9.10
2019-01-23T15:42:55.334Z,9.10
2019-01-23T15:45:22.442Z,9.10
2019-01-23T15:47:49.528Z,9.10
2019-01-23T15:50:18.924Z,9.10
2019-01-23T15:52:46.030Z,9.10
2019-01-23T15:55:14.132Z,9.10
2019-01-23T15:57:41.210Z,9.10
2019-01-23T16:00:18.505Z,9.10
2019-01-23T16:02:45.606Z,9.10
2019-01-23T16:05:12.725Z,9.10
2019-01-23T16:07:39.798Z,9.10
2019-01-23T16:10:08.185Z,9.10
2019-01-23T16:12:35.252Z,9.10
2019-01-23T16:15:02.406Z,9.10
2019-01-23T16:17:29.481Z,9.10
2019-01-23T16:19:56.577Z,9.10
2019-01-23T16:22:23.647Z,9.10
2019-01-23T16:24:50.731Z,9.10
2019-01-23T16:27:17.810Z,9.10
2019-01-23T16:29:44.882Z,9.10
2019-01-23T16:32:11.960Z,9.00
2019-01-23T16:34:39.133Z,9.10
2019-01-23T16:37:06.203Z,9.10
2019-01-23T16:39:33.301Z,9.10
2019-01-23T16:42:00.383Z,9.00
2019-01-23T16:44:27.460Z,9.00
2019-01-23T16:46:54.560Z,9.00
2019-01-23T16:49:21.636Z,9.00
2019-01-23T16:51:51.497Z,9.00
2019-01-23T16:54:15.832Z,9.00
2019-01-23T16:56:42.907Z,9.00
2019-01-23T16:59:09.985Z,9.00
2019-01-23T17:01:37.077Z,9.10
2019-01-23T17:04:04.221Z,9.00
2019-01-23T17:06:31.336Z,9.00
2019-01-23T17:08:58.398Z,9.10
2019-01-23T17:11:25.489Z,9.00
2019-01-23T17:13:52.562Z,9.00
2019-01-23T17:16:19.673Z,9.10
2019-01-23T17:18:46.756Z,9.00
2019-01-23T17:21:13.879Z,9.00
2019-01-23T17:23:41.048Z,9.00
2019-01-23T17:26:08.175Z,9.00
2019-01-23T17:28:35.572Z,9.00
2019-01-23T17:31:02.416Z,9.00
2019-01-23T17:33:29.500Z,9.00
2019-01-23T17:35:56.728Z,9.00
2019-01-23T17:38:23.743Z,9.00
2019-01-23T17:40:50.849Z,9.10
2019-01-23T17:43:18.021Z,9.00
2019-01-23T17:45:45.100Z,9.00
2019-01-23T17:48:12.986Z,9.00
2019-01-23T17:50:40.112Z,9.00
2019-01-23T17:53:07.200Z,9.00
2019-01-23T17:55:35.708Z,9.00
2019-01-23T17:58:03.232Z,9.00
2019-01-23T18:00:32.793Z,9.00
2019-01-23T18:02:59.864Z,9.00
2019-01-23T18:05:26.962Z,9.00
2019-01-23T18:07:55.400Z,9.00
2019-01-23T18:10:21.205Z,9.00
2019-01-23T18:12:48.297Z,9.00
2019-01-23T18:15:17.282Z,9.00
2019-01-23T18:17:44.379Z,9.00
2019-01-23T18:20:14.293Z,9.00
2019-01-23T18:22:41.405Z,9.00
2019-01-23T18:25:09.039Z,8.90
2019-01-23T18:27:36.160Z,9.00
2019-01-23T18:30:05.704Z,9.00
2019-01-23T18:32:32.788Z,9.00
2019-01-23T18:35:12.796Z,9.00
2019-01-23T18:37:56.521Z,8.90
2019-01-23T18:40:34.050Z,8.90
2019-01-23T18:43:52.766Z,9.00
2019-01-23T18:46:33.139Z,8.90
2019-01-23T18:50:22.161Z,8.90
2019-01-23T18:52:49.229Z,8.90
2019-01-23T18:55:17.461Z,8.90
2019-01-23T18:57:44.589Z,8.90
2019-01-23T19:00:14.842Z,8.90
2019-01-23T19:02:41.932Z,8.90
2019-01-23T19:05:09.069Z,9.00
2019-01-23T19:07:36.155Z,8.90
2019-01-23T19:10:03.897Z,8.90
2019-01-23T19:12:30.973Z,8.90
2019-01-23T19:14:58.047Z,8.90
2019-01-23T19:17:25.124Z,9.00
2019-01-23T19:19:52.225Z,9.00
2019-01-23T19:22:19.282Z,8.90
2019-01-23T19:24:46.414Z,8.90
2019-01-23T19:27:13.531Z,8.90
2019-01-23T19:29:40.660Z,8.90
2019-01-23T19:32:07.741Z,8.90
2019-01-23T19:34:34.873Z,8.90
2019-01-23T19:37:01.957Z,8.90
2019-01-23T19:39:29.057Z,8.90
2019-01-23T19:41:56.168Z,8.90
2019-01-23T19:44:23.264Z,8.90
2019-01-23T19:46:50.371Z,8.90
2019-01-23T19:49:17.464Z,8.90
2019-01-23T19:51:44.565Z,8.90
2019-01-23T19:54:11.640Z,8.90
2019-01-23T19:56:38.756Z,8.90
2019-01-23T19:59:05.840Z,8.90
2019-01-23T20:01:32.946Z,8.90
2019-01-23T20:04:00.041Z,9.00
2019-01-23T20:06:27.120Z,8.90
2019-01-23T20:08:54.251Z,8.90
2019-01-23T20:11:22.639Z,9.00
2019-01-23T20:13:48.433Z,8.90
2019-01-23T20:16:15.521Z,8.90
2019-01-23T20:18:42.604Z,8.90
2019-01-23T20:21:09.696Z,8.90
2019-01-23T20:23:36.789Z,8.90
2019-01-23T20:26:03.900Z,8.90
2019-01-23T20:28:30.990Z,8.90
2019-01-23T20:30:58.077Z,8.90
2019-01-23T20:33:28.224Z,8.90
2019-01-23T20:35:52.264Z,8.90
2019-01-23T20:38:19.369Z,8.90
2019-01-23T20:40:46.456Z,8.90
2019-01-23T20:43:13.549Z,8.90
2019-01-23T20:45:40.630Z,8.90
2019-01-23T20:48:09.153Z,8.90
2019-01-23T20:50:36.255Z,8.90
2019-01-23T20:53:03.523Z,8.90
2019-01-23T20:55:30.630Z,8.90
2019-01-23T20:57:57.713Z,8.90
2019-01-23T21:00:26.997Z,8.90
2019-01-23T21:02:54.093Z,8.90
2019-01-23T21:05:21.229Z,8.90
2019-01-23T21:07:48.296Z,8.90
2019-01-23T21:10:16.120Z,8.90
2019-01-23T21:12:43.212Z,8.90
2019-01-23T21:15:14.748Z,8.90
2019-01-23T21:17:41.836Z,8.90
2019-01-23T21:20:09.192Z,8.90
2019-01-23T21:22:36.294Z,8.90
2019-01-23T21:25:04.144Z,8.90
2019-01-23T21:27:31.250Z,8.90
2019-01-23T21:29:58.311Z,8.90
2019-01-23T21:32:25.392Z,8.90
2019-01-23T21:34:52.484Z,8.90
2019-01-23T21:37:19.561Z,8.80
2019-01-23T21:39:46.640Z,8.90
2019-01-23T21:42:13.748Z,8.90
2019-01-23T21:44:40.841Z,8.90
2019-01-23T21:47:07.955Z,8.90
2019-01-23T21:49:35.057Z,8.90
2019-01-23T21:52:02.164Z,8.90
2019-01-23T21:54:29.699Z,8.90
2019-01-23T21:56:56.373Z,8.90
2019-01-23T21:59:23.465Z,8.90
2019-01-23T22:01:50.573Z,8.90
2019-01-23T22:04:17.685Z,8.90
2019-01-23T22:06:44.797Z,8.90
2019-01-23T22:09:11.852Z,8.90
2019-01-23T22:11:43.527Z,8.90
2019-01-23T22:14:06.162Z,8.90
2019-01-23T22:16:33.281Z,8.90
2019-01-23T22:19:00.381Z,8.90
2019-01-23T22:21:27.475Z,8.90
2019-01-23T22:23:54.553Z,8.90
2019-01-23T22:26:21.641Z,8.80
2019-01-23T22:28:48.737Z,8.80
2019-01-23T22:31:15.806Z,8.80
2019-01-23T22:33:42.878Z,8.80
2019-01-23T22:36:09.973Z,8.80
2019-01-23T22:38:37.065Z,8.80
2019-01-23T22:41:04.145Z,8.80
2019-01-23T22:43:31.209Z,8.80
2019-01-23T22:45:58.281Z,8.90
2019-01-23T22:48:25.413Z,8.80
2019-01-23T22:50:52.476Z,8.80
2019-01-23T22:53:19.572Z,8.80
2019-01-23T22:55:46.642Z,8.90
2019-01-23T22:58:13.863Z,8.80
2019-01-23T23:00:48.384Z,8.80
2019-01-23T23:03:17.617Z,8.80
2019-01-23T23:05:44.710Z,8.80
2019-01-23T23:08:11.801Z,8.80
2019-01-23T23:10:38.894Z,8.80
2019-01-23T23:13:05.964Z,8.80
2019-01-23T23:15:33.045Z,8.90
2019-01-23T23:18:00.154Z,8.80
2019-01-23T23:20:27.248Z,8.80
2019-01-23T23:22:54.341Z,8.80
2019-01-23T23:25:21.420Z,8.80
2019-01-23T23:27:48.506Z,8.80
2019-01-23T23:30:15.621Z,8.90
2019-01-23T23:32:42.712Z,8.80
2019-01-23T23:35:09.813Z,8.80
2019-01-23T23:37:36.889Z,8.80
2019-01-23T23:40:05.100Z,8.80
2019-01-23T23:42:32.194Z,8.80
2019-01-23T23:47:26.285Z,8.80
2019-01-23T23:49:53.367Z,8.80
2019-01-23T23:52:20.445Z,8.80
2019-01-23T23:54:47.545Z,8.80
2019-01-23T23:57:14.646Z,8.80
2019-01-23T23:59:41.764Z,8.80
